sensor_id;sensor_type;location;lat;lon;timestamp;P1;durP1;ratioP1;P2;durP2;ratioP2
58874;SDS011;44652;49.040;12.126;2022-10-16T05:49:48;14.90;;;8.30;;
58874;SDS011;44652;49.040;12.126;2022-10-16T05:52:15;13.45;;;8.15;;
58874;SDS011;44652;49.040;12.126;2022-10-16T05:54:41;10.38;;;8.10;;
58874;SDS011;44652;49.040;12.126;2022-10-16T05:57:08;11.55;;;7.45;;
58874;SDS011;44652;49.040;12.126;2022-10-16T05:59:35;11.95;;;7.63;;
58874;SDS011;44652;49.040;12.126;2022-10-16T06:02:01;8.02;;;6.88;;
58874;SDS011;44652;49.040;12.126;2022-10-16T06:04:28;9.77;;;6.78;;
58874;SDS011;44652;49.040;12.126;2022-10-16T06:06:57;7.95;;;6.28;;
58874;SDS011;44652;49.040;12.126;2022-10-16T06:09:26;10.25;;;6.65;;
58874;SDS011;44652;49.040;12.126;2022-10-16T06:11:53;8.82;;;7.28;;
58874;SDS011;44652;49.040;12.126;2022-10-16T06:14:19;10.52;;;7.32;;
58874;SDS011;44652;49.040;12.126;2022-10-16T06:16:46;17.73;;;7.22;;
58874;SDS011;44652;49.040;12.126;2022-10-16T06:19:12;11.07;;;8.02;;
58874;SDS011;44652;49.040;12.126;2022-10-16T06:21:38;13.98;;;7.88;;
58874;SDS011;44652;49.040;12.126;2022-10-16T06:24:05;13.88;;;7.88;;
58874;SDS011;44652;49.040;12.126;2022-10-16T06:26:32;8.98;;;7.40;;
58874;SDS011;44652;49.040;12.126;2022-10-16T06:28:58;10.27;;;7.60;;
58874;SDS011;44652;49.040;12.126;2022-10-16T06:31:26;13.18;;;7.25;;
58874;SDS011;44652;49.040;12.126;2022-10-16T06:33:55;9.55;;;6.88;;
58874;SDS011;44652;49.040;12.126;2022-10-16T06:36:23;14.70;;;8.15;;
58874;SDS011;44652;49.040;12.126;2022-10-16T06:38:49;12.67;;;9.50;;
58874;SDS011;44652;49.040;12.126;2022-10-16T06:41:17;12.82;;;8.40;;
58874;SDS011;44652;49.040;12.126;2022-10-16T06:43:44;13.48;;;8.73;;
58874;SDS011;44652;49.040;12.126;2022-10-16T06:46:14;13.50;;;9.27;;
58874;SDS011;44652;49.040;12.126;2022-10-16T06:48:41;11.10;;;9.65;;
58874;SDS011;44652;49.040;12.126;2022-10-16T06:51:09;11.77;;;8.38;;
58874;SDS011;44652;49.040;12.126;2022-10-16T06:53:37;14.75;;;9.30;;
58874;SDS011;44652;49.040;12.126;2022-10-16T06:56:15;14.10;;;9.10;;
58874;SDS011;44652;49.040;12.126;2022-10-16T06:58:42;11.50;;;8.20;;
58874;SDS011;44652;49.040;12.126;2022-10-16T07:01:09;11.70;;;9.15;;
58874;SDS011;44652;49.040;12.126;2022-10-16T07:03:36;11.32;;;9.13;;
58874;SDS011;44652;49.040;12.126;2022-10-16T07:06:03;11.80;;;9.23;;
58874;SDS011;44652;49.040;12.126;2022-10-16T07:08:33;12.43;;;9.97;;
58874;SDS011;44652;49.040;12.126;2022-10-16T07:11:01;10.93;;;8.68;;
58874;SDS011;44652;49.040;12.126;2022-10-16T07:13:28;12.10;;;8.70;;
58874;SDS011;44652;49.040;12.126;2022-10-16T07:15:54;11.68;;;9.18;;
58874;SDS011;44652;49.040;12.126;2022-10-16T07:18:21;15.50;;;8.60;;
58874;SDS011;44652;49.040;12.126;2022-10-16T07:20:52;10.45;;;7.32;;
58874;SDS011;44652;49.040;12.126;2022-10-16T07:23:19;11.68;;;8.13;;
58874;SDS011;44652;49.040;12.126;2022-10-16T07:25:45;12.00;;;7.38;;
58874;SDS011;44652;49.040;12.126;2022-10-16T07:28:12;13.15;;;9.05;;
58874;SDS011;44652;49.040;12.126;2022-10-16T07:30:38;10.75;;;9.68;;
58874;SDS011;44652;49.040;12.126;2022-10-16T07:33:05;13.68;;;9.85;;
58874;SDS011;44652;49.040;12.126;2022-10-16T07:35:31;8.80;;;7.93;;
58874;SDS011;44652;49.040;12.126;2022-10-16T07:37:58;12.40;;;8.30;;
58874;SDS011;44652;49.040;12.126;2022-10-16T07:40:24;10.85;;;7.38;;
58874;SDS011;44652;49.040;12.126;2022-10-16T07:42:53;11.68;;;7.07;;
58874;SDS011;44652;49.040;12.126;2022-10-16T07:45:19;8.82;;;6.72;;
58874;SDS011;44652;49.040;12.126;2022-10-16T07:47:46;7.88;;;6.45;;
58874;SDS011;44652;49.040;12.126;2022-10-16T07:50:13;11.10;;;6.55;;
58874;SDS011;44652;49.040;12.126;2022-10-16T07:52:39;7.70;;;5.95;;
58874;SDS011;44652;49.040;12.126;2022-10-16T07:55:06;9.68;;;8.07;;
58874;SDS011;44652;49.040;12.126;2022-10-16T07:57:32;12.70;;;9.10;;
58874;SDS011;44652;49.040;12.126;2022-10-16T07:59:59;12.52;;;8.40;;
58874;SDS011;44652;49.040;12.126;2022-10-16T08:02:25;11.93;;;7.18;;
58874;SDS011;44652;49.040;12.126;2022-10-16T08:04:52;10.43;;;6.20;;
58874;SDS011;44652;49.040;12.126;2022-10-16T08:07:18;7.45;;;6.22;;
58874;SDS011;44652;49.040;12.126;2022-10-16T08:09:48;6.75;;;5.30;;
58874;SDS011;44652;49.040;12.126;2022-10-16T08:12:14;8.77;;;5.60;;
58874;SDS011;44652;49.040;12.126;2022-10-16T08:14:41;10.90;;;5.18;;
58874;SDS011;44652;49.040;12.126;2022-10-16T08:17:13;8.40;;;5.30;;
58874;SDS011;44652;49.040;12.126;2022-10-16T08:19:39;13.85;;;5.97;;
58874;SDS011;44652;49.040;12.126;2022-10-16T08:22:06;10.32;;;5.65;;
58874;SDS011;44652;49.040;12.126;2022-10-16T08:24:33;10.77;;;6.15;;
58874;SDS011;44652;49.040;12.126;2022-10-16T08:27:01;8.32;;;4.82;;
58874;SDS011;44652;49.040;12.126;2022-10-16T08:29:27;8.57;;;5.03;;
58874;SDS011;44652;49.040;12.126;2022-10-16T08:31:54;11.75;;;5.53;;
58874;SDS011;44652;49.040;12.126;2022-10-16T08:34:20;8.82;;;4.40;;
58874;SDS011;44652;49.040;12.126;2022-10-16T08:36:47;6.63;;;4.80;;
58874;SDS011;44652;49.040;12.126;2022-10-16T08:39:13;9.20;;;5.75;;
58874;SDS011;44652;49.040;12.126;2022-10-16T08:46:42;5.95;;;4.68;;
58874;SDS011;44652;49.040;12.126;2022-10-16T08:49:16;7.05;;;4.55;;
58874;SDS011;44652;49.040;12.126;2022-10-16T08:51:43;7.63;;;4.80;;
58874;SDS011;44652;49.040;12.126;2022-10-16T08:56:45;11.93;;;5.20;;
58874;SDS011;44652;49.040;12.126;2022-10-16T08:59:11;7.38;;;4.93;;
58874;SDS011;44652;49.040;12.126;2022-10-16T09:09:30;7.65;;;4.68;;
58874;SDS011;44652;49.040;12.126;2022-10-16T09:12:04;8.65;;;4.93;;
58874;SDS011;44652;49.040;12.126;2022-10-16T09:19:43;6.65;;;4.15;;
58874;SDS011;44652;49.040;12.126;2022-10-16T09:22:11;7.07;;;3.83;;
58874;SDS011;44652;49.040;12.126;2022-10-16T09:24:38;6.25;;;3.70;;
58874;SDS011;44652;49.040;12.126;2022-10-16T09:27:08;10.00;;;4.30;;
58874;SDS011;44652;49.040;12.126;2022-10-16T09:29:36;6.60;;;3.60;;
58874;SDS011;44652;49.040;12.126;2022-10-16T09:32:13;7.10;;;3.45;;
58874;SDS011;44652;49.040;12.126;2022-10-16T09:34:45;6.03;;;3.22;;
58874;SDS011;44652;49.040;12.126;2022-10-16T09:37:14;9.70;;;3.55;;
58874;SDS011;44652;49.040;12.126;2022-10-16T09:39:46;4.97;;;2.90;;
58874;SDS011;44652;49.040;12.126;2022-10-16T09:42:14;4.15;;;3.13;;
58874;SDS011;44652;49.040;12.126;2022-10-16T09:47:18;4.88;;;2.88;;
58874;SDS011;44652;49.040;12.126;2022-10-16T09:49:59;7.55;;;2.90;;
58874;SDS011;44652;49.040;12.126;2022-10-16T09:52:28;9.05;;;3.00;;
58874;SDS011;44652;49.040;12.126;2022-10-16T09:54:56;5.70;;;2.60;;
58874;SDS011;44652;49.040;12.126;2022-10-16T09:57:24;4.50;;;2.67;;
58874;SDS011;44652;49.040;12.126;2022-10-16T09:59:55;4.53;;;2.50;;
58874;SDS011;44652;49.040;12.126;2022-10-16T10:02:34;4.70;;;2.58;;
58874;SDS011;44652;49.040;12.126;2022-10-16T10:05:01;5.20;;;2.75;;
58874;SDS011;44652;49.040;12.126;2022-10-16T10:07:30;4.65;;;2.80;;
58874;SDS011;44652;49.040;12.126;2022-10-16T10:10:00;5.10;;;2.72;;
58874;SDS011;44652;49.040;12.126;2022-10-16T10:12:27;5.35;;;2.45;;
58874;SDS011;44652;49.040;12.126;2022-10-16T10:22:31;6.10;;;2.60;;
58874;SDS011;44652;49.040;12.126;2022-10-16T10:25:35;4.53;;;2.60;;
58874;SDS011;44652;49.040;12.126;2022-10-16T10:30:44;5.28;;;2.50;;
58874;SDS011;44652;49.040;12.126;2022-10-16T10:36:19;5.55;;;2.58;;
58874;SDS011;44652;49.040;12.126;2022-10-16T10:38:49;5.55;;;2.63;;
58874;SDS011;44652;49.040;12.126;2022-10-16T10:44:05;6.43;;;2.90;;
58874;SDS011;44652;49.040;12.126;2022-10-16T10:51:53;5.03;;;2.50;;
58874;SDS011;44652;49.040;12.126;2022-10-16T10:54:28;7.68;;;2.40;;
58874;SDS011;44652;49.040;12.126;2022-10-16T10:57:02;5.53;;;2.53;;
58874;SDS011;44652;49.040;12.126;2022-10-16T11:07:30;7.03;;;2.30;;
58874;SDS011;44652;49.040;12.126;2022-10-16T11:09:59;4.93;;;2.33;;
58874;SDS011;44652;49.040;12.126;2022-10-16T11:17:25;4.32;;;2.20;;
58874;SDS011;44652;49.040;12.126;2022-10-16T11:22:28;8.02;;;2.47;;
58874;SDS011;44652;49.040;12.126;2022-10-16T11:27:36;5.68;;;1.95;;
58874;SDS011;44652;49.040;12.126;2022-10-16T11:30:04;5.63;;;2.70;;
58874;SDS011;44652;49.040;12.126;2022-10-16T11:32:33;4.55;;;1.92;;
58874;SDS011;44652;49.040;12.126;2022-10-16T11:35:02;3.42;;;1.98;;
58874;SDS011;44652;49.040;12.126;2022-10-16T11:37:32;6.45;;;2.00;;
58874;SDS011;44652;49.040;12.126;2022-10-16T11:40:25;6.20;;;2.00;;
58874;SDS011;44652;49.040;12.126;2022-10-16T11:42:51;3.78;;;2.17;;
58874;SDS011;44652;49.040;12.126;2022-10-16T11:45:54;3.03;;;2.08;;
58874;SDS011;44652;49.040;12.126;2022-10-16T11:51:02;4.15;;;2.47;;
58874;SDS011;44652;49.040;12.126;2022-10-16T11:53:35;8.10;;;2.20;;
58874;SDS011;44652;49.040;12.126;2022-10-16T11:56:05;3.85;;;2.10;;
58874;SDS011;44652;49.040;12.126;2022-10-16T11:58:41;6.50;;;2.13;;
58874;SDS011;44652;49.040;12.126;2022-10-16T12:08:36;4.28;;;2.00;;
58874;SDS011;44652;49.040;12.126;2022-10-16T12:13:48;3.50;;;2.00;;
58874;SDS011;44652;49.040;12.126;2022-10-16T12:18:44;3.13;;;1.90;;
58874;SDS011;44652;49.040;12.126;2022-10-16T12:21:12;4.38;;;2.17;;
58874;SDS011;44652;49.040;12.126;2022-10-16T12:26:14;4.25;;;1.92;;
58874;SDS011;44652;49.040;12.126;2022-10-16T12:28:49;3.22;;;1.90;;
58874;SDS011;44652;49.040;12.126;2022-10-16T12:31:18;5.93;;;1.83;;
58874;SDS011;44652;49.040;12.126;2022-10-16T12:33:56;2.88;;;1.80;;
58874;SDS011;44652;49.040;12.126;2022-10-16T12:36:30;4.55;;;1.60;;
58874;SDS011;44652;49.040;12.126;2022-10-16T12:38:57;3.85;;;1.80;;
58874;SDS011;44652;49.040;12.126;2022-10-16T12:41:42;2.95;;;1.70;;
58874;SDS011;44652;49.040;12.126;2022-10-16T12:44:23;4.05;;;1.80;;
58874;SDS011;44652;49.040;12.126;2022-10-16T12:46:52;3.30;;;2.00;;
58874;SDS011;44652;49.040;12.126;2022-10-16T12:49:21;3.90;;;1.95;;
58874;SDS011;44652;49.040;12.126;2022-10-16T12:51:49;3.78;;;1.80;;
58874;SDS011;44652;49.040;12.126;2022-10-16T12:54:17;3.42;;;1.75;;
58874;SDS011;44652;49.040;12.126;2022-10-16T12:56:54;6.68;;;2.28;;
58874;SDS011;44652;49.040;12.126;2022-10-16T13:04:58;4.93;;;1.77;;
58874;SDS011;44652;49.040;12.126;2022-10-16T13:07:32;3.10;;;1.75;;
58874;SDS011;44652;49.040;12.126;2022-10-16T13:15:19;4.43;;;1.80;;
58874;SDS011;44652;49.040;12.126;2022-10-16T13:25:56;5.82;;;1.90;;
58874;SDS011;44652;49.040;12.126;2022-10-16T13:28:27;3.38;;;1.95;;
58874;SDS011;44652;49.040;12.126;2022-10-16T13:30:56;2.92;;;1.70;;
58874;SDS011;44652;49.040;12.126;2022-10-16T13:36:24;5.50;;;1.80;;
58874;SDS011;44652;49.040;12.126;2022-10-16T13:41:26;5.18;;;2.00;;
58874;SDS011;44652;49.040;12.126;2022-10-16T13:43:53;6.03;;;1.60;;
58874;SDS011;44652;49.040;12.126;2022-10-16T13:46:22;8.38;;;1.70;;
58874;SDS011;44652;49.040;12.126;2022-10-16T13:48:59;6.20;;;2.08;;
58874;SDS011;44652;49.040;12.126;2022-10-16T13:51:26;2.67;;;1.70;;
58874;SDS011;44652;49.040;12.126;2022-10-16T13:53:54;4.72;;;1.80;;
58874;SDS011;44652;49.040;12.126;2022-10-16T13:56:21;6.03;;;1.73;;
58874;SDS011;44652;49.040;12.126;2022-10-16T13:59:50;2.92;;;1.73;;
58874;SDS011;44652;49.040;12.126;2022-10-16T14:01:45;4.65;;;1.88;;
58874;SDS011;44652;49.040;12.126;2022-10-16T14:04:12;7.80;;;2.20;;
58874;SDS011;44652;49.040;12.126;2022-10-16T14:06:40;3.15;;;1.70;;
58874;SDS011;44652;49.040;12.126;2022-10-16T14:11:36;3.45;;;1.85;;
58874;SDS011;44652;49.040;12.126;2022-10-16T14:14:04;5.70;;;1.90;;
58874;SDS011;44652;49.040;12.126;2022-10-16T14:16:30;5.53;;;2.10;;
58874;SDS011;44652;49.040;12.126;2022-10-16T14:19:01;5.03;;;2.00;;
58874;SDS011;44652;49.040;12.126;2022-10-16T14:21:28;4.20;;;2.00;;
58874;SDS011;44652;49.040;12.126;2022-10-16T14:23:55;4.57;;;2.63;;
58874;SDS011;44652;49.040;12.126;2022-10-16T14:26:23;3.17;;;1.80;;
58874;SDS011;44652;49.040;12.126;2022-10-16T14:29:01;3.28;;;2.10;;
58874;SDS011;44652;49.040;12.126;2022-10-16T14:31:29;3.40;;;1.90;;
58874;SDS011;44652;49.040;12.126;2022-10-16T14:33:56;5.53;;;2.10;;
58874;SDS011;44652;49.040;12.126;2022-10-16T14:36:23;3.22;;;1.90;;
58874;SDS011;44652;49.040;12.126;2022-10-16T14:38:58;5.95;;;2.17;;
58874;SDS011;44652;49.040;12.126;2022-10-16T14:41:25;3.42;;;1.98;;
58874;SDS011;44652;49.040;12.126;2022-10-16T14:43:55;6.40;;;2.40;;
58874;SDS011;44652;49.040;12.126;2022-10-16T14:46:28;6.03;;;2.20;;
58874;SDS011;44652;49.040;12.126;2022-10-16T14:51:37;4.70;;;2.05;;
58874;SDS011;44652;49.040;12.126;2022-10-16T14:54:03;3.63;;;2.17;;
58874;SDS011;44652;49.040;12.126;2022-10-16T14:56:32;6.50;;;2.30;;
58874;SDS011;44652;49.040;12.126;2022-10-16T14:58:59;3.92;;;2.38;;
58874;SDS011;44652;49.040;12.126;2022-10-16T15:01:26;3.97;;;2.30;;
58874;SDS011;44652;49.040;12.126;2022-10-16T15:03:52;5.97;;;2.80;;
58874;SDS011;44652;49.040;12.126;2022-10-16T15:06:21;5.72;;;2.30;;
58874;SDS011;44652;49.040;12.126;2022-10-16T15:08:48;6.65;;;2.47;;
58874;SDS011;44652;49.040;12.126;2022-10-16T15:11:18;5.45;;;2.35;;
58874;SDS011;44652;49.040;12.126;2022-10-16T15:13:45;6.72;;;2.22;;
58874;SDS011;44652;49.040;12.126;2022-10-16T15:16:12;3.65;;;2.42;;
58874;SDS011;44652;49.040;12.126;2022-10-16T15:18:39;3.55;;;2.30;;
58874;SDS011;44652;49.040;12.126;2022-10-16T15:21:06;4.60;;;2.65;;
58874;SDS011;44652;49.040;12.126;2022-10-16T15:23:32;6.68;;;2.60;;
58874;SDS011;44652;49.040;12.126;2022-10-16T15:25:59;6.03;;;2.55;;
58874;SDS011;44652;49.040;12.126;2022-10-16T15:28:26;6.50;;;2.70;;
58874;SDS011;44652;49.040;12.126;2022-10-16T15:30:54;3.72;;;2.47;;
58874;SDS011;44652;49.040;12.126;2022-10-16T15:33:22;7.03;;;2.80;;
58874;SDS011;44652;49.040;12.126;2022-10-16T15:35:49;7.38;;;3.00;;
58874;SDS011;44652;49.040;12.126;2022-10-16T15:38:17;4.55;;;2.88;;
58874;SDS011;44652;49.040;12.126;2022-10-16T15:40:44;5.53;;;2.95;;
58874;SDS011;44652;49.040;12.126;2022-10-16T15:43:10;5.18;;;2.95;;
58874;SDS011;44652;49.040;12.126;2022-10-16T15:45:37;5.27;;;2.90;;
58874;SDS011;44652;49.040;12.126;2022-10-16T15:48:04;7.00;;;2.97;;
58874;SDS011;44652;49.040;12.126;2022-10-16T15:50:31;12.27;;;3.70;;
58874;SDS011;44652;49.040;12.126;2022-10-16T15:52:58;6.03;;;3.47;;
58874;SDS011;44652;49.040;12.126;2022-10-16T15:55:24;6.60;;;3.80;;
58874;SDS011;44652;49.040;12.126;2022-10-16T15:57:51;5.10;;;3.50;;
58874;SDS011;44652;49.040;12.126;2022-10-16T16:00:19;5.40;;;3.35;;
58874;SDS011;44652;49.040;12.126;2022-10-16T16:02:51;6.68;;;4.10;;
58874;SDS011;44652;49.040;12.126;2022-10-16T16:05:19;8.00;;;3.75;;
58874;SDS011;44652;49.040;12.126;2022-10-16T16:07:45;5.95;;;3.90;;
58874;SDS011;44652;49.040;12.126;2022-10-16T16:10:12;7.10;;;3.70;;
58874;SDS011;44652;49.040;12.126;2022-10-16T16:12:38;7.47;;;3.90;;
58874;SDS011;44652;49.040;12.126;2022-10-16T16:15:06;13.02;;;4.03;;
58874;SDS011;44652;49.040;12.126;2022-10-16T16:17:33;5.72;;;3.72;;
58874;SDS011;44652;49.040;12.126;2022-10-16T16:20:00;6.22;;;4.03;;
58874;SDS011;44652;49.040;12.126;2022-10-16T16:22:27;7.72;;;3.92;;
58874;SDS011;44652;49.040;12.126;2022-10-16T16:24:54;9.85;;;4.03;;
58874;SDS011;44652;49.040;12.126;2022-10-16T16:27:21;7.95;;;4.07;;
58874;SDS011;44652;49.040;12.126;2022-10-16T16:29:47;5.50;;;4.03;;
58874;SDS011;44652;49.040;12.126;2022-10-16T16:32:14;5.60;;;3.88;;
58874;SDS011;44652;49.040;12.126;2022-10-16T16:34:40;9.05;;;3.83;;
58874;SDS011;44652;49.040;12.126;2022-10-16T16:37:07;7.95;;;3.83;;
58874;SDS011;44652;49.040;12.126;2022-10-16T16:39:33;6.60;;;3.38;;
58874;SDS011;44652;49.040;12.126;2022-10-16T16:42:00;8.57;;;4.20;;
58874;SDS011;44652;49.040;12.126;2022-10-16T16:46:55;8.13;;;5.50;;
58874;SDS011;44652;49.040;12.126;2022-10-16T16:49:22;10.82;;;7.10;;
58874;SDS011;44652;49.040;12.126;2022-10-16T16:51:48;13.48;;;7.75;;
58874;SDS011;44652;49.040;12.126;2022-10-16T16:54:15;11.10;;;7.50;;
58874;SDS011;44652;49.040;12.126;2022-10-16T16:56:42;7.63;;;5.28;;
58874;SDS011;44652;49.040;12.126;2022-10-16T16:59:12;9.00;;;5.07;;
58874;SDS011;44652;49.040;12.126;2022-10-16T17:01:40;6.88;;;4.95;;
58874;SDS011;44652;49.040;12.126;2022-10-16T17:04:06;6.65;;;4.75;;
58874;SDS011;44652;49.040;12.126;2022-10-16T17:06:33;9.10;;;4.95;;
58874;SDS011;44652;49.040;12.126;2022-10-16T17:09:03;9.40;;;5.00;;
58874;SDS011;44652;49.040;12.126;2022-10-16T17:11:30;9.68;;;5.40;;
58874;SDS011;44652;49.040;12.126;2022-10-16T17:13:57;9.85;;;6.05;;
58874;SDS011;44652;49.040;12.126;2022-10-16T17:16:25;11.63;;;5.30;;
58874;SDS011;44652;49.040;12.126;2022-10-16T17:18:52;8.30;;;4.60;;
58874;SDS011;44652;49.040;12.126;2022-10-16T17:21:19;11.68;;;7.65;;
58874;SDS011;44652;49.040;12.126;2022-10-16T17:23:46;9.52;;;6.97;;
58874;SDS011;44652;49.040;12.126;2022-10-16T17:26:15;11.73;;;6.53;;
58874;SDS011;44652;49.040;12.126;2022-10-16T17:28:42;8.98;;;6.20;;
58874;SDS011;44652;49.040;12.126;2022-10-16T17:31:19;10.80;;;8.23;;
58874;SDS011;44652;49.040;12.126;2022-10-16T17:33:46;10.20;;;7.72;;
58874;SDS011;44652;49.040;12.126;2022-10-16T17:36:13;11.18;;;6.40;;
58874;SDS011;44652;49.040;12.126;2022-10-16T17:38:40;10.90;;;6.72;;
58874;SDS011;44652;49.040;12.126;2022-10-16T17:41:20;9.15;;;5.90;;
58874;SDS011;44652;49.040;12.126;2022-10-16T17:43:48;11.57;;;7.35;;
58874;SDS011;44652;49.040;12.126;2022-10-16T17:46:15;11.40;;;6.43;;
58874;SDS011;44652;49.040;12.126;2022-10-16T17:48:43;11.10;;;7.10;;
58874;SDS011;44652;49.040;12.126;2022-10-16T17:51:11;12.20;;;6.93;;
58874;SDS011;44652;49.040;12.126;2022-10-16T17:53:38;12.07;;;6.65;;
58874;SDS011;44652;49.040;12.126;2022-10-16T17:56:05;8.85;;;5.90;;
58874;SDS011;44652;49.040;12.126;2022-10-16T17:58:32;8.68;;;5.45;;
58874;SDS011;44652;49.040;12.126;2022-10-16T18:00:59;9.93;;;6.15;;
58874;SDS011;44652;49.040;12.126;2022-10-16T18:03:26;8.73;;;5.88;;
58874;SDS011;44652;49.040;12.126;2022-10-16T18:05:56;13.52;;;6.68;;
58874;SDS011;44652;49.040;12.126;2022-10-16T18:08:23;9.93;;;5.80;;
58874;SDS011;44652;49.040;12.126;2022-10-16T18:10:54;8.77;;;6.03;;
58874;SDS011;44652;49.040;12.126;2022-10-16T18:13:20;7.57;;;5.88;;
58874;SDS011;44652;49.040;12.126;2022-10-16T18:15:57;9.38;;;5.82;;
58874;SDS011;44652;49.040;12.126;2022-10-16T18:18:24;11.10;;;5.97;;
58874;SDS011;44652;49.040;12.126;2022-10-16T18:20:55;8.75;;;6.30;;
58874;SDS011;44652;49.040;12.126;2022-10-16T18:23:22;13.45;;;6.40;;
58874;SDS011;44652;49.040;12.126;2022-10-16T18:25:49;9.13;;;6.43;;
58874;SDS011;44652;49.040;12.126;2022-10-16T18:28:16;9.35;;;6.18;;
58874;SDS011;44652;49.040;12.126;2022-10-16T18:30:43;12.70;;;7.30;;
58874;SDS011;44652;49.040;12.126;2022-10-16T18:33:09;8.52;;;6.43;;
58874;SDS011;44652;49.040;12.126;2022-10-16T18:35:36;8.73;;;5.72;;
58874;SDS011;44652;49.040;12.126;2022-10-16T18:38:03;10.48;;;6.63;;
58874;SDS011;44652;49.040;12.126;2022-10-16T18:40:29;13.82;;;6.97;;
58874;SDS011;44652;49.040;12.126;2022-10-16T18:42:55;15.95;;;11.23;;
58874;SDS011;44652;49.040;12.126;2022-10-16T18:45:22;15.52;;;9.02;;
58874;SDS011;44652;49.040;12.126;2022-10-16T18:47:48;9.75;;;6.88;;
58874;SDS011;44652;49.040;12.126;2022-10-16T18:50:15;8.25;;;6.22;;
58874;SDS011;44652;49.040;12.126;2022-10-16T18:52:48;13.32;;;8.48;;
58874;SDS011;44652;49.040;12.126;2022-10-16T18:55:14;19.58;;;8.18;;
58874;SDS011;44652;49.040;12.126;2022-10-16T18:57:41;9.63;;;5.93;;
58874;SDS011;44652;49.040;12.126;2022-10-16T19:00:08;9.88;;;6.13;;
58874;SDS011;44652;49.040;12.126;2022-10-16T19:02:35;7.60;;;5.72;;
58874;SDS011;44652;49.040;12.126;2022-10-16T19:05:02;9.47;;;6.53;;
58874;SDS011;44652;49.040;12.126;2022-10-16T19:07:32;9.57;;;6.50;;
58874;SDS011;44652;49.040;12.126;2022-10-16T19:09:58;10.90;;;5.95;;
58874;SDS011;44652;49.040;12.126;2022-10-16T19:12:25;9.95;;;6.07;;
58874;SDS011;44652;49.040;12.126;2022-10-16T19:14:52;8.40;;;6.13;;
58874;SDS011;44652;49.040;12.126;2022-10-16T19:17:18;13.13;;;6.28;;
58874;SDS011;44652;49.040;12.126;2022-10-16T19:19:45;8.70;;;4.85;;
58874;SDS011;44652;49.040;12.126;2022-10-16T19:22:11;8.75;;;5.65;;
58874;SDS011;44652;49.040;12.126;2022-10-16T19:24:53;10.35;;;5.72;;
58874;SDS011;44652;49.040;12.126;2022-10-16T19:27:20;9.95;;;5.55;;
58874;SDS011;44652;49.040;12.126;2022-10-16T19:29:46;8.68;;;5.63;;
58874;SDS011;44652;49.040;12.126;2022-10-16T19:32:13;9.02;;;5.22;;
58874;SDS011;44652;49.040;12.126;2022-10-16T19:34:39;7.78;;;5.45;;
58874;SDS011;44652;49.040;12.126;2022-10-16T19:37:06;7.47;;;4.88;;
58874;SDS011;44652;49.040;12.126;2022-10-16T19:39:35;8.20;;;5.20;;
58874;SDS011;44652;49.040;12.126;2022-10-16T19:42:02;9.43;;;5.45;;
58874;SDS011;44652;49.040;12.126;2022-10-16T19:44:28;10.10;;;5.78;;
58874;SDS011;44652;49.040;12.126;2022-10-16T19:46:55;10.30;;;5.90;;
58874;SDS011;44652;49.040;12.126;2022-10-16T19:49:21;10.77;;;5.20;;
58874;SDS011;44652;49.040;12.126;2022-10-16T19:51:48;9.45;;;5.28;;
58874;SDS011;44652;49.040;12.126;2022-10-16T19:54:17;7.82;;;5.38;;
58874;SDS011;44652;49.040;12.126;2022-10-16T19:56:44;10.63;;;6.18;;
58874;SDS011;44652;49.040;12.126;2022-10-16T19:59:11;8.93;;;5.10;;
58874;SDS011;44652;49.040;12.126;2022-10-16T20:01:38;8.00;;;5.25;;
58874;SDS011;44652;49.040;12.126;2022-10-16T20:04:05;11.93;;;5.45;;
58874;SDS011;44652;49.040;12.126;2022-10-16T20:06:31;9.70;;;5.18;;
58874;SDS011;44652;49.040;12.126;2022-10-16T20:08:58;7.55;;;4.43;;
58874;SDS011;44652;49.040;12.126;2022-10-16T20:11:30;6.47;;;4.40;;
58874;SDS011;44652;49.040;12.126;2022-10-16T20:13:57;6.32;;;4.20;;
58874;SDS011;44652;49.040;12.126;2022-10-16T20:16:24;9.47;;;4.37;;
58874;SDS011;44652;49.040;12.126;2022-10-16T20:18:51;7.43;;;3.72;;
58874;SDS011;44652;49.040;12.126;2022-10-16T20:21:28;9.70;;;4.32;;
58874;SDS011;44652;49.040;12.126;2022-10-16T20:23:56;7.07;;;3.80;;
58874;SDS011;44652;49.040;12.126;2022-10-16T20:26:23;7.78;;;4.15;;
58874;SDS011;44652;49.040;12.126;2022-10-16T20:28:51;6.63;;;3.85;;
58874;SDS011;44652;49.040;12.126;2022-10-16T20:31:22;9.10;;;3.50;;
58874;SDS011;44652;49.040;12.126;2022-10-16T20:33:49;5.90;;;3.92;;
58874;SDS011;44652;49.040;12.126;2022-10-16T20:36:17;8.07;;;3.90;;
58874;SDS011;44652;49.040;12.126;2022-10-16T20:38:44;8.40;;;4.20;;
58874;SDS011;44652;49.040;12.126;2022-10-16T20:41:11;6.80;;;3.97;;
58874;SDS011;44652;49.040;12.126;2022-10-16T20:43:38;9.20;;;4.30;;
58874;SDS011;44652;49.040;12.126;2022-10-16T20:46:06;8.15;;;4.05;;
58874;SDS011;44652;49.040;12.126;2022-10-16T20:48:36;7.85;;;4.10;;
58874;SDS011;44652;49.040;12.126;2022-10-16T20:51:25;8.95;;;3.97;;
58874;SDS011;44652;49.040;12.126;2022-10-16T20:53:59;6.45;;;4.10;;
58874;SDS011;44652;49.040;12.126;2022-10-16T20:56:26;7.65;;;4.05;;
58874;SDS011;44652;49.040;12.126;2022-10-16T20:58:53;8.38;;;3.92;;
58874;SDS011;44652;49.040;12.126;2022-10-16T21:01:22;6.15;;;3.58;;
58874;SDS011;44652;49.040;12.126;2022-10-16T21:03:50;9.90;;;4.28;;
58874;SDS011;44652;49.040;12.126;2022-10-16T21:06:17;8.20;;;4.00;;
58874;SDS011;44652;49.040;12.126;2022-10-16T21:08:44;7.65;;;3.60;;
58874;SDS011;44652;49.040;12.126;2022-10-16T21:13:43;8.02;;;3.38;;
58874;SDS011;44652;49.040;12.126;2022-10-16T21:16:10;8.05;;;3.80;;
58874;SDS011;44652;49.040;12.126;2022-10-16T21:18:37;6.45;;;3.70;;
58874;SDS011;44652;49.040;12.126;2022-10-16T21:21:09;7.72;;;3.70;;
58874;SDS011;44652;49.040;12.126;2022-10-16T21:23:37;12.73;;;5.30;;
58874;SDS011;44652;49.040;12.126;2022-10-16T21:26:03;6.35;;;4.00;;
58874;SDS011;44652;49.040;12.126;2022-10-16T21:28:30;6.05;;;3.75;;
58874;SDS011;44652;49.040;12.126;2022-10-16T21:30:57;6.65;;;3.60;;
58874;SDS011;44652;49.040;12.126;2022-10-16T21:33:25;9.52;;;3.72;;
58874;SDS011;44652;49.040;12.126;2022-10-16T21:35:52;6.32;;;3.78;;
58874;SDS011;44652;49.040;12.126;2022-10-16T21:38:18;8.63;;;4.35;;
58874;SDS011;44652;49.040;12.126;2022-10-16T21:40:45;11.52;;;4.40;;
58874;SDS011;44652;49.040;12.126;2022-10-16T21:43:11;6.60;;;3.95;;
